Time;durP1;ratioP1;P1;durP2;ratioP2;P2;SDS_P1;SDS_P2;PMS_P1;PMS_P2;Temp;Humidity;BMP_temperature;BMP_pressure;BME280_temperature;BME280_humidity;BME280_pressure;Samples;Min_cycle;Max_cycle;Signal;HPM_P1;HPM_P2
2022/03/21 00:01:10;;;;;;;;;;;8.40;27.30;;;;;;4994856;28;19914;-62
2022/03/21 00:03:36;;;;;;;;;;;8.20;27.50;;;;;;4995011;28;20350;-57
2022/03/21 00:06:02;;;;;;;;;;;8.30;27.70;;;;;;4994957;28;19924;-62
2022/03/21 00:08:28;;;;;;;;;;;8.20;27.50;;;;;;4994874;28;19918;-55
2022/03/21 00:10:54;;;;;;;;;;;8.20;27.50;;;;;;4994685;28;19917;-63
2022/03/21 00:13:20;;;;;;;;;;;8.20;27.50;;;;;;4995105;28;19917;-62
2022/03/21 00:15:47;;;;;;;;;;;8.10;27.70;;;;;;4994757;28;19910;-56
2022/03/21 00:18:13;;;;;;;;;;;8.20;27.80;;;;;;4994485;28;20258;-55
2022/03/21 00:20:43;;;;;;;;;;;8.20;27.70;;;;;;4994552;28;19996;-56
2022/03/21 00:23:09;;;;;;;;;;;8.10;27.70;;;;;;4994407;28;20004;-54
2022/03/21 00:25:34;;;;;;;;;;;8.10;27.80;;;;;;4994299;28;20001;-57
2022/03/21 00:28:00;;;;;;;;;;;8.20;27.80;;;;;;4994130;28;19960;-55
2022/03/21 00:30:26;;;;;;;;;;;8.20;27.70;;;;;;4994397;28;20052;-55
2022/03/21 00:32:52;;;;;;;;;;;8.20;27.80;;;;;;4994227;28;19916;-54
2022/03/21 00:35:18;;;;;;;;;;;8.20;27.70;;;;;;4993001;28;19910;-54
2022/03/21 00:37:44;;;;;;;;;;;8.10;27.60;;;;;;4994327;28;19921;-57
2022/03/21 00:40:10;;;;;;;;;;;8.10;27.90;;;;;;4994810;28;19913;-54
2022/03/21 00:42:37;;;;;;;;;;;7.90;27.70;;;;;;5001337;28;19964;-55
2022/03/21 00:45:29;;;;;;;;;;;8.00;27.90;;;;;;4996796;28;19909;-54
2022/03/21 00:47:55;;;;;;;;;;;8.10;27.90;;;;;;4995105;28;19941;-55
2022/03/21 00:50:22;;;;;;;;;;;8.10;27.90;;;;;;4994073;28;20346;-55
2022/03/21 00:52:51;;;;;;;;;;;8.10;27.70;;;;;;4994359;28;19910;-55
2022/03/21 00:55:18;;;;;;;;;;;8.10;27.80;;;;;;4994255;28;19917;-55
2022/03/21 00:57:44;;;;;;;;;;;8.20;27.80;;;;;;4994410;28;19910;-55
2022/03/21 01:00:14;;;;;;;;;;;8.10;27.90;;;;;;4994146;28;19917;-56
2022/03/21 01:02:40;;;;;;;;;;;8.00;28.30;;;;;;4994187;28;20313;-55
2022/03/21 01:05:07;;;;;;;;;;;8.10;28.00;;;;;;4994331;28;19914;-56
2022/03/21 01:07:32;;;;;;;;;;;8.10;27.80;;;;;;4994166;28;19917;-57
2022/03/21 01:09:58;;;;;;;;;;;8.10;28.20;;;;;;4994094;28;19916;-56
2022/03/21 01:12:24;;;;;;;;;;;8.00;28.00;;;;;;4993787;28;19916;-56
2022/03/21 01:14:49;;;;;;;;;;;7.90;28.20;;;;;;4994082;28;19910;-55
2022/03/21 01:17:15;;;;;;;;;;;7.90;28.20;;;;;;4994269;28;19906;-57
2022/03/21 01:19:41;;;;;;;;;;;7.70;28.50;;;;;;4994176;28;19953;-56
2022/03/21 01:22:06;;;;;;;;;;;7.60;28.50;;;;;;4993909;28;19913;-55
2022/03/21 01:24:35;;;;;;;;;;;7.50;28.80;;;;;;4993724;28;19910;-58
2022/03/21 01:27:05;;;;;;;;;;;7.50;28.90;;;;;;4993621;28;19917;-56
2022/03/21 01:29:31;;;;;;;;;;;7.60;29.30;;;;;;4993632;28;19920;-55
2022/03/21 01:31:57;;;;;;;;;;;7.40;29.00;;;;;;4993960;28;19909;-54
2022/03/21 01:34:22;;;;;;;;;;;7.40;29.10;;;;;;4993736;28;20000;-56
2022/03/21 01:36:48;;;;;;;;;;;7.20;29.20;;;;;;4993812;28;19956;-54
2022/03/21 01:39:13;;;;;;;;;;;7.30;29.20;;;;;;4995872;28;19917;-55
2022/03/21 01:41:39;;;;;;;;;;;7.30;29.30;;;;;;4997378;28;20442;-54
2022/03/21 01:44:06;;;;;;;;;;;7.20;29.20;;;;;;4997421;28;19941;-54
2022/03/21 01:46:32;;;;;;;;;;;7.20;29.50;;;;;;4997638;28;19979;-56
2022/03/21 01:48:58;;;;;;;;;;;7.30;29.10;;;;;;4997383;28;20365;-55
2022/03/21 01:51:26;;;;;;;;;;;7.30;29.20;;;;;;4997469;28;19941;-56
2022/03/21 01:56:36;;;;;;;;;;;7.40;29.30;;;;;;4997384;28;19968;-55
2022/03/21 01:59:02;;;;;;;;;;;7.30;29.20;;;;;;4997495;28;19910;-55
2022/03/21 02:01:28;;;;;;;;;;;7.20;29.30;;;;;;4997214;28;19944;-55
2022/03/21 02:03:53;;;;;;;;;;;7.30;29.40;;;;;;4997330;28;19917;-56
2022/03/21 02:06:21;;;;;;;;;;;7.20;29.50;;;;;;4997203;28;19910;-55
2022/03/21 02:08:47;;;;;;;;;;;7.20;29.20;;;;;;4997141;28;20342;-56
2022/03/21 02:11:12;;;;;;;;;;;7.20;29.50;;;;;;4997286;28;19949;-55
2022/03/21 02:13:39;;;;;;;;;;;7.20;29.50;;;;;;4996837;28;20254;-56
2022/03/21 02:16:04;;;;;;;;;;;7.10;29.60;;;;;;4997013;28;19913;-54
2022/03/21 02:18:30;;;;;;;;;;;7.20;29.60;;;;;;4996689;28;19910;-55
2022/03/21 02:20:57;;;;;;;;;;;7.20;29.70;;;;;;4996780;28;19909;-55
2022/03/21 02:23:26;;;;;;;;;;;7.20;29.60;;;;;;4996531;28;19937;-55
2022/03/21 02:25:52;;;;;;;;;;;7.20;29.70;;;;;;4996766;28;19964;-55
2022/03/21 02:28:18;;;;;;;;;;;7.20;29.70;;;;;;4995439;28;19922;-55
2022/03/21 02:30:47;;;;;;;;;;;7.20;29.80;;;;;;4996863;28;19910;-56
2022/03/21 02:33:13;;;;;;;;;;;7.30;29.60;;;;;;4996577;28;19910;-55
2022/03/21 02:35:39;;;;;;;;;;;7.20;29.60;;;;;;4999141;28;20353;-56
2022/03/21 02:38:06;;;;;;;;;;;7.20;29.80;;;;;;4999691;28;19991;-66
2022/03/21 02:40:32;;;;;;;;;;;7.20;29.80;;;;;;5001031;28;19910;-69
2022/03/21 02:42:58;;;;;;;;;;;7.20;29.80;;;;;;4997668;28;20374;-63
2022/03/21 02:45:23;;;;;;;;;;;7.30;29.80;;;;;;4996857;28;19913;-68
2022/03/21 02:47:49;;;;;;;;;;;7.30;29.70;;;;;;4996595;28;19913;-67
2022/03/21 02:50:33;;;;;;;;;;;7.30;29.80;;;;;;4995951;28;19921;-60
2022/03/21 02:52:59;;;;;;;;;;;7.40;29.80;;;;;;4996211;28;19913;-67
2022/03/21 02:55:24;;;;;;;;;;;7.40;29.60;;;;;;4996371;28;20385;-67
2022/03/21 02:57:50;;;;;;;;;;;7.40;29.70;;;;;;4996281;28;19964;-67
2022/03/21 03:00:15;;;;;;;;;;;7.30;29.60;;;;;;4996063;28;19909;-68
2022/03/21 03:02:41;;;;;;;;;;;7.20;29.60;;;;;;4996011;28;19929;-58
2022/03/21 03:05:07;;;;;;;;;;;7.10;29.70;;;;;;4995989;28;19910;-64
2022/03/21 03:07:34;;;;;;;;;;;7.10;30.00;;;;;;4996129;28;20354;-66
2022/03/21 03:09:59;;;;;;;;;;;7.00;30.00;;;;;;4995734;28;19916;-68
2022/03/21 03:12:25;;;;;;;;;;;6.90;30.20;;;;;;4995645;28;19914;-67
2022/03/21 03:14:50;;;;;;;;;;;7.00;30.10;;;;;;4996165;28;20013;-65
2022/03/21 03:17:16;;;;;;;;;;;7.10;29.90;;;;;;4995715;28;19909;-66
2022/03/21 03:19:41;;;;;;;;;;;7.10;29.80;;;;;;4995573;28;20377;-59
2022/03/21 03:22:08;;;;;;;;;;;7.10;30.00;;;;;;4995652;28;19910;-63
2022/03/21 03:24:34;;;;;;;;;;;7.00;29.90;;;;;;4995738;28;19936;-54
2022/03/21 03:27:00;;;;;;;;;;;7.00;30.00;;;;;;4995701;28;20008;-63
2022/03/21 03:29:25;;;;;;;;;;;7.10;30.00;;;;;;4995417;28;19914;-61
2022/03/21 03:31:51;;;;;;;;;;;6.90;30.00;;;;;;4995397;28;19914;-55
2022/03/21 03:34:17;;;;;;;;;;;6.90;30.10;;;;;;4995371;28;19959;-56
2022/03/21 03:36:42;;;;;;;;;;;6.90;30.20;;;;;;4994856;28;19933;-60
2022/03/21 03:39:08;;;;;;;;;;;6.80;30.20;;;;;;4997961;28;19913;-57
2022/03/21 03:41:33;;;;;;;;;;;6.90;30.20;;;;;;5000145;28;19917;-55
2022/03/21 03:43:59;;;;;;;;;;;6.90;30.20;;;;;;4993947;28;19910;-54
2022/03/21 03:46:25;;;;;;;;;;;7.00;30.00;;;;;;4995335;28;19945;-54
2022/03/21 03:48:52;;;;;;;;;;;7.00;30.00;;;;;;4995274;28;20362;-55
2022/03/21 03:51:18;;;;;;;;;;;6.90;30.10;;;;;;4995058;28;20000;-57
2022/03/21 03:53:43;;;;;;;;;;;6.80;30.30;;;;;;4995166;28;19945;-56
2022/03/21 03:56:09;;;;;;;;;;;6.80;30.40;;;;;;4995242;28;19910;-58
2022/03/21 03:58:35;;;;;;;;;;;6.80;30.50;;;;;;4995237;28;20277;-54
2022/03/21 04:01:02;;;;;;;;;;;6.90;30.30;;;;;;4994233;28;19910;-55
2022/03/21 04:03:46;;;;;;;;;;;6.80;30.30;;;;;;4994794;28;19917;-55
2022/03/21 04:06:13;;;;;;;;;;;6.90;30.10;;;;;;4994688;28;19917;-55
2022/03/21 04:08:38;;;;;;;;;;;6.90;30.30;;;;;;4994949;28;19918;-54
2022/03/21 04:11:04;;;;;;;;;;;6.80;30.50;;;;;;4994647;28;20388;-55
2022/03/21 04:13:30;;;;;;;;;;;6.90;30.20;;;;;;4994636;28;20394;-54
2022/03/21 04:15:55;;;;;;;;;;;6.70;30.50;;;;;;4994725;28;19910;-55
2022/03/21 04:18:21;;;;;;;;;;;6.80;30.40;;;;;;4994997;28;19909;-55
2022/03/21 04:20:50;;;;;;;;;;;6.80;30.30;;;;;;4995211;28;19932;-55
2022/03/21 04:23:17;;;;;;;;;;;6.80;30.80;;;;;;4994940;28;20258;-55
2022/03/21 04:25:43;;;;;;;;;;;6.70;30.70;;;;;;4994855;28;19910;-55
2022/03/21 04:28:09;;;;;;;;;;;6.70;30.80;;;;;;4994825;28;19963;-55
2022/03/21 04:30:35;;;;;;;;;;;6.70;31.00;;;;;;4994324;28;19921;-55
2022/03/21 04:33:01;;;;;;;;;;;6.70;30.80;;;;;;4994520;28;19913;-55
2022/03/21 04:35:27;;;;;;;;;;;6.80;30.90;;;;;;4994686;28;19941;-55
2022/03/21 04:37:52;;;;;;;;;;;6.80;30.70;;;;;;4994442;28;20297;-55
2022/03/21 04:40:18;;;;;;;;;;;6.80;30.50;;;;;;4994445;28;19949;-55
2022/03/21 04:42:43;;;;;;;;;;;6.90;30.30;;;;;;4994473;28;19910;-54
2022/03/21 04:45:09;;;;;;;;;;;6.90;30.30;;;;;;4994520;28;19914;-55
2022/03/21 04:47:35;;;;;;;;;;;6.90;30.80;;;;;;4994145;28;19921;-55
2022/03/21 04:50:00;;;;;;;;;;;6.90;30.00;;;;;;4994443;28;19917;-56
2022/03/21 04:52:26;;;;;;;;;;;6.90;30.00;;;;;;4994534;28;19910;-55
2022/03/21 04:54:51;;;;;;;;;;;7.00;30.00;;;;;;4994440;28;19910;-55
2022/03/21 04:57:20;;;;;;;;;;;6.90;30.00;;;;;;4994284;28;19955;-55
2022/03/21 04:59:46;;;;;;;;;;;6.90;29.90;;;;;;4994246;28;20009;-55
2022/03/21 05:02:12;;;;;;;;;;;6.90;29.90;;;;;;4994177;28;19965;-55
2022/03/21 05:04:37;;;;;;;;;;;7.00;29.90;;;;;;4994265;28;20346;-55
2022/03/21 05:07:05;;;;;;;;;;;6.90;30.00;;;;;;4994081;28;19910;-56
2022/03/21 05:09:30;;;;;;;;;;;7.00;30.10;;;;;;4994081;28;20274;-55
2022/03/21 05:11:56;;;;;;;;;;;6.90;30.00;;;;;;4993934;28;19910;-55
2022/03/21 05:14:22;;;;;;;;;;;6.90;30.10;;;;;;4998050;28;19917;-54
2022/03/21 05:16:47;;;;;;;;;;;6.90;30.20;;;;;;4998331;28;19910;-60
2022/03/21 05:19:14;;;;;;;;;;;6.90;30.20;;;;;;4998286;28;20293;-54
2022/03/21 05:21:40;;;;;;;;;;;7.00;30.10;;;;;;4997929;28;20362;-59
2022/03/21 05:32:19;;;;;;;;;;;7.00;30.10;;;;;;4997534;28;20003;-55
2022/03/21 05:37:29;;;;;;;;;;;7.10;30.10;;;;;;4997628;28;20061;-57
2022/03/21 05:42:39;;;;;;;;;;;6.90;30.20;;;;;;4997557;28;20044;-56
2022/03/21 05:45:04;;;;;;;;;;;6.80;30.40;;;;;;4997621;28;20009;-56
2022/03/21 05:47:30;;;;;;;;;;;6.90;30.40;;;;;;4997809;28;19914;-56
2022/03/21 05:49:56;;;;;;;;;;;7.00;30.30;;;;;;4997428;28;20021;-56
2022/03/21 05:52:21;;;;;;;;;;;7.20;30.60;;;;;;4997287;28;20266;-57
2022/03/21 05:54:47;;;;;;;;;;;7.10;30.50;;;;;;4997591;28;19945;-56
2022/03/21 05:57:12;;;;;;;;;;;7.10;30.30;;;;;;4997643;28;19910;-56
2022/03/21 06:02:22;;;;;;;;;;;7.10;30.10;;;;;;4997074;28;19916;-55
2022/03/21 06:04:49;;;;;;;;;;;7.10;30.40;;;;;;4997437;28;20269;-56
2022/03/21 06:07:16;;;;;;;;;;;7.20;30.50;;;;;;4997448;28;20376;-55
2022/03/21 06:09:42;;;;;;;;;;;7.30;30.10;;;;;;4995602;28;19937;-57
2022/03/21 06:12:07;;;;;;;;;;;7.30;30.00;;;;;;4997193;28;19910;-57
2022/03/21 06:14:34;;;;;;;;;;;7.30;30.30;;;;;;4996887;28;19917;-62
2022/03/21 06:17:00;;;;;;;;;;;7.20;30.30;;;;;;4996823;28;19957;-56
2022/03/21 06:19:25;;;;;;;;;;;7.10;30.40;;;;;;4996919;28;19945;-55
2022/03/21 06:21:51;;;;;;;;;;;7.10;30.20;;;;;;4996946;28;19960;-58
2022/03/21 06:24:18;;;;;;;;;;;7.20;30.20;;;;;;4995864;28;19917;-55
2022/03/21 06:26:44;;;;;;;;;;;7.20;30.30;;;;;;4996766;28;19933;-54
2022/03/21 06:29:10;;;;;;;;;;;7.40;30.00;;;;;;4996674;28;19918;-56
2022/03/21 06:31:36;;;;;;;;;;;7.40;30.00;;;;;;4996610;28;19917;-60
2022/03/21 06:34:01;;;;;;;;;;;7.40;29.90;;;;;;4997413;28;19910;-54
2022/03/21 06:36:27;;;;;;;;;;;7.40;30.00;;;;;;5001754;28;19956;-57
2022/03/21 06:38:52;;;;;;;;;;;7.50;30.00;;;;;;4997529;28;20290;-55
2022/03/21 06:41:18;;;;;;;;;;;7.60;29.90;;;;;;4996573;28;19996;-54
2022/03/21 06:43:43;;;;;;;;;;;7.90;29.50;;;;;;4996394;28;20378;-54
2022/03/21 06:46:09;;;;;;;;;;;8.00;29.10;;;;;;4996287;28;19910;-56
2022/03/21 06:48:34;;;;;;;;;;;8.10;29.00;;;;;;4996327;28;19917;-56
2022/03/21 06:51:00;;;;;;;;;;;8.30;28.60;;;;;;4996453;28;20004;-55
2022/03/21 06:53:26;;;;;;;;;;;8.40;28.40;;;;;;4996266;28;19909;-56
2022/03/21 06:55:51;;;;;;;;;;;8.60;28.10;;;;;;4996263;28;20016;-56
2022/03/21 06:58:17;;;;;;;;;;;8.80;27.80;;;;;;4996115;28;19956;-56
2022/03/21 07:00:43;;;;;;;;;;;8.70;28.00;;;;;;4996082;28;19917;-55
2022/03/21 07:03:09;;;;;;;;;;;9.20;39.40;;;;;;4995918;28;19926;-59
2022/03/21 07:05:37;;;;;;;;;;;9.80;33.10;;;;;;4995638;28;19961;-61
2022/03/21 07:08:03;;;;;;;;;;;10.00;30.90;;;;;;4995630;28;20008;-57
2022/03/21 07:10:30;;;;;;;;;;;10.00;28.40;;;;;;4996045;28;19914;-58
2022/03/21 07:12:55;;;;;;;;;;;10.20;29.00;;;;;;4995594;28;19918;-56
2022/03/21 07:15:21;;;;;;;;;;;10.30;27.30;;;;;;4995606;28;20017;-58
2022/03/21 07:17:48;;;;;;;;;;;10.30;28.00;;;;;;4995824;28;20004;-58
2022/03/21 07:20:14;;;;;;;;;;;10.20;27.50;;;;;;4995629;28;19910;-58
2022/03/21 07:22:39;;;;;;;;;;;10.30;27.60;;;;;;4995205;28;19917;-60
2022/03/21 07:25:06;;;;;;;;;;;10.40;27.20;;;;;;4995628;28;19917;-57
2022/03/21 07:27:32;;;;;;;;;;;10.50;27.70;;;;;;4995350;28;19933;-57
2022/03/21 07:29:58;;;;;;;;;;;11.00;28.40;;;;;;4995113;28;19910;-59
2022/03/21 07:32:23;;;;;;;;;;;10.60;25.50;;;;;;4995507;28;19997;-59
2022/03/21 07:34:49;;;;;;;;;;;10.50;26.20;;;;;;4995561;28;19914;-58
2022/03/21 07:37:14;;;;;;;;;;;10.50;25.90;;;;;;4995402;28;19925;-58
2022/03/21 07:39:40;;;;;;;;;;;10.60;25.40;;;;;;4996901;28;19914;-61
2022/03/21 07:42:07;;;;;;;;;;;10.60;26.10;;;;;;4996578;28;20309;-61
2022/03/21 07:47:17;;;;;;;;;;;10.70;25.20;;;;;;4995288;28;21811;-61
2022/03/21 07:49:46;;;;;;;;;;;10.50;25.40;;;;;;4995043;28;19949;-62
2022/03/21 07:52:12;;;;;;;;;;;10.60;25.50;;;;;;4994979;28;20367;-61
2022/03/21 07:54:37;;;;;;;;;;;10.90;25.10;;;;;;4995146;28;19910;-65
2022/03/21 07:57:04;;;;;;;;;;;11.00;24.50;;;;;;4995027;28;20334;-58
2022/03/21 07:59:30;;;;;;;;;;;11.30;24.20;;;;;;4995189;28;19910;-58
2022/03/21 08:01:57;;;;;;;;;;;11.20;24.10;;;;;;4994874;28;19909;-68
2022/03/21 08:04:23;;;;;;;;;;;11.40;23.90;;;;;;4995066;28;19917;-57
2022/03/21 08:06:49;;;;;;;;;;;11.20;23.60;;;;;;4994859;28;19910;-57
2022/03/21 08:09:14;;;;;;;;;;;11.10;23.90;;;;;;4994694;28;20029;-58
2022/03/21 08:11:40;;;;;;;;;;;11.10;23.80;;;;;;4994507;28;19909;-59
2022/03/21 08:14:06;;;;;;;;;;;11.20;23.80;;;;;;4994893;28;19910;-62
2022/03/21 08:16:31;;;;;;;;;;;11.10;24.20;;;;;;4994596;28;19921;-57
2022/03/21 08:18:57;;;;;;;;;;;11.30;24.10;;;;;;4985106;28;20270;-60
2022/03/21 08:21:23;;;;;;;;;;;11.40;23.40;;;;;;4982439;28;19920;-59
2022/03/21 08:23:49;;;;;;;;;;;11.50;23.50;;;;;;4984789;28;20020;-58
2022/03/21 08:26:16;;;;;;;;;;;11.60;23.20;;;;;;4984643;28;19914;-61
2022/03/21 08:28:43;;;;;;;;;;;11.60;22.90;;;;;;4983110;28;20414;-61
2022/03/21 08:31:12;;;;;;;;;;;11.70;23.40;;;;;;4984457;28;20008;-59
2022/03/21 08:33:38;;;;;;;;;;;11.40;22.80;;;;;;4990655;28;19913;-58
2022/03/21 08:36:03;;;;;;;;;;;11.40;23.10;;;;;;4994075;28;20251;-62
2022/03/21 08:38:29;;;;;;;;;;;11.50;22.90;;;;;;4993538;28;19926;-61
2022/03/21 08:40:56;;;;;;;;;;;11.50;23.40;;;;;;4993648;28;20313;-61
2022/03/21 08:43:22;;;;;;;;;;;11.60;22.70;;;;;;4993636;28;19910;-61
2022/03/21 08:45:48;;;;;;;;;;;11.60;22.50;;;;;;4993821;28;20280;-61
2022/03/21 08:48:13;;;;;;;;;;;11.60;22.80;;;;;;4993334;28;19924;-63
2022/03/21 08:50:39;;;;;;;;;;;11.80;22.80;;;;;;4993699;28;20384;-57
2022/03/21 08:53:05;;;;;;;;;;;12.00;23.40;;;;;;4993314;28;20590;-55
2022/03/21 08:55:30;;;;;;;;;;;12.20;23.00;;;;;;4994032;28;19910;-61
2022/03/21 08:57:56;;;;;;;;;;;12.40;22.20;;;;;;4994036;28;19954;-56
2022/03/21 09:00:22;;;;;;;;;;;12.50;22.10;;;;;;4993628;28;19914;-56
2022/03/21 09:02:49;;;;;;;;;;;12.30;22.10;;;;;;4993627;28;20013;-62
2022/03/21 09:05:16;;;;;;;;;;;12.40;22.90;;;;;;4993490;28;19949;-58
2022/03/21 09:07:42;;;;;;;;;;;12.40;23.20;;;;;;4991255;28;20353;-59
2022/03/21 09:10:07;;;;;;;;;;;12.70;22.90;;;;;;4993384;28;19914;-54
2022/03/21 09:12:33;;;;;;;;;;;12.60;21.90;;;;;;4993464;28;19964;-56
2022/03/21 09:14:59;;;;;;;;;;;12.30;22.40;;;;;;4993212;28;20016;-56
2022/03/21 09:17:25;;;;;;;;;;;12.40;22.30;;;;;;4993504;28;19914;-59
2022/03/21 09:19:51;;;;;;;;;;;12.40;22.10;;;;;;4993347;28;19910;-57
2022/03/21 09:22:16;;;;;;;;;;;12.50;22.60;;;;;;4993788;28;20417;-57
2022/03/21 09:24:42;;;;;;;;;;;12.50;22.80;;;;;;4993962;28;19910;-59
2022/03/21 09:27:07;;;;;;;;;;;12.40;23.20;;;;;;4993814;28;19914;-64
2022/03/21 09:29:33;;;;;;;;;;;12.70;23.50;;;;;;4993894;28;19968;-62
2022/03/21 09:31:58;;;;;;;;;;;12.60;22.20;;;;;;4990044;28;19937;-56
2022/03/21 09:34:24;;;;;;;;;;;12.70;22.10;;;;;;4977970;28;20005;-60
2022/03/21 09:36:50;;;;;;;;;;;12.70;23.10;;;;;;4974230;28;20351;-56
2022/03/21 09:39:17;;;;;;;;;;;13.00;23.00;;;;;;4974201;28;20017;-57
2022/03/21 09:41:44;;;;;;;;;;;13.10;22.20;;;;;;4974206;28;21188;-57
2022/03/21 09:44:10;;;;;;;;;;;13.00;22.20;;;;;;4974494;28;19910;-59
2022/03/21 09:46:44;;;;;;;;;;;12.60;21.60;;;;;;4974102;28;19944;-56
2022/03/21 09:49:11;;;;;;;;;;;12.60;22.70;;;;;;4974041;28;19918;-57
2022/03/21 09:51:36;;;;;;;;;;;12.80;21.80;;;;;;4974065;28;19917;-57
2022/03/21 09:54:02;;;;;;;;;;;12.90;22.80;;;;;;4989270;28;19919;-56
2022/03/21 09:56:28;;;;;;;;;;;12.90;21.70;;;;;;4993184;28;19917;-57
2022/03/21 09:59:00;;;;;;;;;;;13.10;22.10;;;;;;4993075;28;19944;-57
2022/03/21 10:01:29;;;;;;;;;;;12.90;21.90;;;;;;4996527;28;19914;-56
2022/03/21 10:03:55;;;;;;;;;;;13.00;22.00;;;;;;4993829;28;20366;-58
2022/03/21 10:06:43;;;;;;;;;;;13.00;22.00;;;;;;4996472;28;19909;-57
2022/03/21 10:09:19;;;;;;;;;;;13.10;21.50;;;;;;4989720;28;19991;-57
2022/03/21 10:11:55;;;;;;;;;;;13.10;21.50;;;;;;4994795;28;20437;-59
2022/03/21 10:14:32;;;;;;;;;;;13.40;21.60;;;;;;4994695;28;19913;-58
2022/03/21 10:17:03;;;;;;;;;;;13.50;21.10;;;;;;4994979;28;19910;-57
2022/03/21 10:19:45;;;;;;;;;;;13.40;21.00;;;;;;4994669;28;19914;-57
2022/03/21 10:22:12;;;;;;;;;;;13.60;21.00;;;;;;4991955;28;19910;-57
2022/03/21 10:24:39;;;;;;;;;;;13.70;20.40;;;;;;4994975;28;20008;-59
2022/03/21 10:27:06;;;;;;;;;;;13.70;20.30;;;;;;4995033;28;19972;-57
2022/03/21 10:29:31;;;;;;;;;;;13.70;20.40;;;;;;4995083;28;20315;-58
2022/03/21 10:31:58;;;;;;;;;;;13.70;19.90;;;;;;4994954;28;19957;-57
2022/03/21 10:34:29;;;;;;;;;;;13.70;20.80;;;;;;4994867;28;20442;-58
2022/03/21 10:37:05;;;;;;;;;;;13.80;20.80;;;;;;4994754;28;19949;-58
2022/03/21 10:39:35;;;;;;;;;;;13.90;20.30;;;;;;4994872;28;20358;-59
2022/03/21 10:42:00;;;;;;;;;;;13.70;19.50;;;;;;4993932;28;19910;-61
2022/03/21 10:44:26;;;;;;;;;;;13.90;20.40;;;;;;4996213;28;19980;-59
2022/03/21 10:46:53;;;;;;;;;;;13.90;19.80;;;;;;4996265;28;19980;-57
2022/03/21 10:49:26;;;;;;;;;;;14.00;20.20;;;;;;4996060;28;19918;-58
2022/03/21 10:51:54;;;;;;;;;;;14.10;19.80;;;;;;4996221;28;19910;-59
2022/03/21 10:54:35;;;;;;;;;;;14.20;19.90;;;;;;4996120;28;20018;-56
2022/03/21 10:57:01;;;;;;;;;;;14.30;20.20;;;;;;4995802;28;19909;-63
2022/03/21 10:59:27;;;;;;;;;;;14.50;20.30;;;;;;4995002;28;19910;-58
2022/03/21 11:02:11;;;;;;;;;;;14.60;19.10;;;;;;4995631;28;19910;-59
2022/03/21 11:04:37;;;;;;;;;;;14.40;19.60;;;;;;4995894;28;20392;-58
2022/03/21 11:07:03;;;;;;;;;;;14.40;20.60;;;;;;4995798;28;19910;-59
2022/03/21 11:09:29;;;;;;;;;;;14.40;20.70;;;;;;4994649;28;20398;-61
2022/03/21 11:11:55;;;;;;;;;;;14.40;20.60;;;;;;4995611;28;19957;-61
2022/03/21 11:14:22;;;;;;;;;;;13.80;20.00;;;;;;4992332;28;19953;-61
2022/03/21 11:16:49;;;;;;;;;;;13.90;20.70;;;;;;4984028;28;19916;-63
2022/03/21 11:19:15;;;;;;;;;;;13.90;20.50;;;;;;4995281;28;19913;-60
2022/03/21 11:21:41;;;;;;;;;;;14.10;20.60;;;;;;4995945;28;20366;-60
2022/03/21 11:24:09;;;;;;;;;;;14.20;21.20;;;;;;4995890;28;19910;-58
2022/03/21 11:26:40;;;;;;;;;;;14.40;21.80;;;;;;4995070;28;19914;-56
2022/03/21 11:29:24;;;;;;;;;;;14.70;21.10;;;;;;4994863;28;20365;-59
2022/03/21 11:31:59;;;;;;;;;;;14.60;20.30;;;;;;4993613;28;19917;-56
2022/03/21 11:34:37;;;;;;;;;;;14.70;21.20;;;;;;4994834;28;19965;-58
2022/03/21 11:37:03;;;;;;;;;;;14.90;21.10;;;;;;4993081;28;20350;-60
2022/03/21 11:39:30;;;;;;;;;;;15.20;21.40;;;;;;4994848;28;19957;-57
2022/03/21 11:42:00;;;;;;;;;;;15.30;20.40;;;;;;4989419;28;19913;-56
2022/03/21 11:44:26;;;;;;;;;;;15.40;20.60;;;;;;4988281;28;20341;-56
2022/03/21 11:46:52;;;;;;;;;;;15.40;20.30;;;;;;4993285;28;20127;-57
2022/03/21 11:49:17;;;;;;;;;;;15.40;20.90;;;;;;4993092;28;19924;-57
2022/03/21 11:51:44;;;;;;;;;;;15.40;20.10;;;;;;4993260;28;20625;-58
2022/03/21 11:54:28;;;;;;;;;;;15.30;19.50;;;;;;4980835;28;20374;-58
2022/03/21 11:56:55;;;;;;;;;;;15.00;20.00;;;;;;4975031;28;19910;-59
2022/03/21 11:59:33;;;;;;;;;;;15.00;20.50;;;;;;4975077;28;19910;-56
2022/03/21 12:01:59;;;;;;;;;;;15.00;20.70;;;;;;4974896;28;19937;-57
2022/03/21 12:04:24;;;;;;;;;;;15.20;19.90;;;;;;4974938;28;20366;-59
2022/03/21 12:07:08;;;;;;;;;;;15.40;20.90;;;;;;4974901;28;19910;-56
2022/03/21 12:09:50;;;;;;;;;;;15.60;20.90;;;;;;4975124;28;19922;-58
2022/03/21 12:12:20;;;;;;;;;;;15.70;20.80;;;;;;4975062;28;19926;-59
2022/03/21 12:14:54;;;;;;;;;;;15.80;20.40;;;;;;4974921;28;19945;-59
2022/03/21 12:17:23;;;;;;;;;;;15.80;19.70;;;;;;4974929;28;19945;-60
2022/03/21 12:19:54;;;;;;;;;;;15.90;20.70;;;;;;4974802;28;20004;-60
2022/03/21 12:22:28;;;;;;;;;;;16.10;21.30;;;;;;4978524;28;20004;-63
2022/03/21 12:24:58;;;;;;;;;;;16.20;20.30;;;;;;4994309;28;19909;-59
2022/03/21 12:27:35;;;;;;;;;;;16.20;20.40;;;;;;4999057;28;20405;-57
2022/03/21 12:30:19;;;;;;;;;;;16.20;20.10;;;;;;4993981;28;19914;-60
2022/03/21 12:32:51;;;;;;;;;;;16.30;19.80;;;;;;4993399;28;19914;-59
2022/03/21 12:35:32;;;;;;;;;;;15.90;19.00;;;;;;4996468;28;19965;-69
2022/03/21 12:38:04;;;;;;;;;;;16.00;19.70;;;;;;4995506;28;20278;-69
2022/03/21 12:40:34;;;;;;;;;;;16.00;19.60;;;;;;4994959;28;19914;-67
2022/03/21 12:43:00;;;;;;;;;;;15.80;19.20;;;;;;4993923;28;19913;-65
2022/03/21 12:45:26;;;;;;;;;;;16.00;19.70;;;;;;4993802;28;20307;-58
2022/03/21 12:47:52;;;;;;;;;;;16.00;20.30;;;;;;4993367;28;19926;-62
2022/03/21 12:50:21;;;;;;;;;;;15.70;19.20;;;;;;4990695;28;19914;-60
2022/03/21 12:53:00;;;;;;;;;;;15.90;20.20;;;;;;4993092;28;19910;-57
2022/03/21 12:55:25;;;;;;;;;;;15.70;19.30;;;;;;4992919;28;19914;-61
2022/03/21 12:57:58;;;;;;;;;;;15.60;20.80;;;;;;4991280;28;19910;-58
2022/03/21 13:00:26;;;;;;;;;;;15.80;20.70;;;;;;4991327;28;19957;-59
2022/03/21 13:02:55;;;;;;;;;;;16.00;18.90;;;;;;4989687;28;19924;-61
2022/03/21 13:10:50;;;;;;;;;;;15.80;18.80;;;;;;4993046;28;19956;-57
2022/03/21 13:13:16;;;;;;;;;;;15.90;19.00;;;;;;4991478;28;19910;-66
2022/03/21 13:15:41;;;;;;;;;;;15.80;19.30;;;;;;4992922;28;20289;-57
2022/03/21 13:18:07;;;;;;;;;;;15.90;19.40;;;;;;4992674;28;19916;-55
2022/03/21 13:20:35;;;;;;;;;;;16.10;19.50;;;;;;4993052;28;19914;-57
2022/03/21 13:23:02;;;;;;;;;;;16.10;18.50;;;;;;4993224;28;19914;-55
2022/03/21 13:25:32;;;;;;;;;;;15.80;18.90;;;;;;4993603;28;19910;-57
2022/03/21 13:28:08;;;;;;;;;;;16.00;19.10;;;;;;4993380;28;19949;-62
2022/03/21 13:30:34;;;;;;;;;;;16.10;19.70;;;;;;4993261;28;19921;-58
2022/03/21 13:33:00;;;;;;;;;;;16.00;18.40;;;;;;4993380;28;19917;-57
2022/03/21 13:35:25;;;;;;;;;;;16.10;19.00;;;;;;4997408;28;19913;-56
2022/03/21 13:38:00;;;;;;;;;;;16.20;18.20;;;;;;4997305;28;19922;-59
2022/03/21 13:40:27;;;;;;;;;;;16.20;19.30;;;;;;4997195;28;19917;-57
2022/03/21 13:42:53;;;;;;;;;;;16.20;17.90;;;;;;4997270;28;20285;-57
2022/03/21 13:45:19;;;;;;;;;;;15.70;17.70;;;;;;4997050;28;19910;-58
2022/03/21 13:47:45;;;;;;;;;;;15.70;18.50;;;;;;4997084;28;19927;-58
2022/03/21 13:50:11;;;;;;;;;;;15.80;19.90;;;;;;4997029;28;19917;-58
2022/03/21 13:52:50;;;;;;;;;;;15.80;19.90;;;;;;4993382;28;19922;-57
2022/03/21 13:55:20;;;;;;;;;;;15.70;18.50;;;;;;4990900;28;19918;-57
2022/03/21 13:57:52;;;;;;;;;;;15.60;18.20;;;;;;4996482;28;20274;-61
2022/03/21 14:00:25;;;;;;;;;;;15.50;18.10;;;;;;4993463;28;20366;-65
2022/03/21 14:02:51;;;;;;;;;;;15.60;18.30;;;;;;4993419;28;19921;-65
2022/03/21 14:05:18;;;;;;;;;;;15.70;18.30;;;;;;4996361;28;19910;-66
2022/03/21 14:07:44;;;;;;;;;;;15.80;17.80;;;;;;4996398;28;19918;-66
2022/03/21 14:10:32;;;;;;;;;;;15.70;18.10;;;;;;4994415;28;19914;-62
2022/03/21 14:12:58;;;;;;;;;;;15.70;18.10;;;;;;4992162;28;20366;-66
2022/03/21 14:15:25;;;;;;;;;;;15.60;18.00;;;;;;4995681;28;20029;-64
2022/03/21 14:17:51;;;;;;;;;;;15.60;18.00;;;;;;4988717;28;19961;-67
2022/03/21 14:20:20;;;;;;;;;;;15.60;18.00;;;;;;4996796;28;19910;-64
2022/03/21 14:22:46;;;;;;;;;;;15.60;18.20;;;;;;4984695;28;20372;-63
2022/03/21 14:27:56;;;;;;;;;;;15.70;17.80;;;;;;4993760;28;20064;-63
2022/03/21 14:30:22;;;;;;;;;;;15.70;17.80;;;;;;4995102;28;20004;-62
2022/03/21 14:32:48;;;;;;;;;;;15.70;18.00;;;;;;4977096;28;20430;-63
2022/03/21 14:35:13;;;;;;;;;;;15.50;17.70;;;;;;4976980;28;19941;-57
2022/03/21 14:37:39;;;;;;;;;;;15.60;17.70;;;;;;4976518;28;19973;-63
2022/03/21 14:40:05;;;;;;;;;;;15.60;18.20;;;;;;4993642;28;19974;-66
2022/03/21 14:42:31;;;;;;;;;;;15.70;17.50;;;;;;4996398;28;19910;-56
2022/03/21 14:44:57;;;;;;;;;;;15.80;18.20;;;;;;4995552;28;19910;-57
2022/03/21 14:47:23;;;;;;;;;;;15.80;18.20;;;;;;4995867;28;20251;-64
2022/03/21 14:49:48;;;;;;;;;;;15.80;17.80;;;;;;4995739;28;20251;-56
2022/03/21 14:52:14;;;;;;;;;;;15.80;18.10;;;;;;4995851;28;19957;-57
2022/03/21 14:54:39;;;;;;;;;;;15.70;18.00;;;;;;4996053;28;19910;-62